createdAt,value
2022-07-26T00:00:52.116Z,11.00
2022-07-26T00:07:16.818Z,12.40
2022-07-26T00:10:20.607Z,12.40
2022-07-26T00:13:27.884Z,15.00
2022-07-26T00:16:35.060Z,13.50
2022-07-26T00:19:38.376Z,15.00
2022-07-26T00:22:41.945Z,14.00
2022-07-26T00:25:45.185Z,12.40
2022-07-26T00:28:49.961Z,12.00
2022-07-26T00:31:53.722Z,15.00
2022-07-26T00:34:57.136Z,13.00
2022-07-26T00:38:00.927Z,15.00
2022-07-26T00:41:04.288Z,13.60
2022-07-26T00:44:09.386Z,13.00
2022-07-26T00:47:12.738Z,13.00
2022-07-26T00:50:18.837Z,13.25
2022-07-26T00:53:22.757Z,13.00
2022-07-26T00:56:27.965Z,14.00
2022-07-26T00:59:32.907Z,13.75
2022-07-26T01:02:36.319Z,13.75
2022-07-26T01:05:39.975Z,11.80
2022-07-26T01:08:43.263Z,12.00
2022-07-26T01:11:47.281Z,12.75
2022-07-26T01:14:51.920Z,11.50
2022-07-26T01:17:55.214Z,13.80
2022-07-26T01:21:14.011Z,13.00
2022-07-26T01:24:19.631Z,12.00
2022-07-26T01:27:22.931Z,15.00
2022-07-26T01:30:26.400Z,15.20
2022-07-26T01:33:29.956Z,15.40
2022-07-26T01:36:33.337Z,15.00
2022-07-26T01:39:40.397Z,14.50
2022-07-26T01:42:50.919Z,15.60
2022-07-26T01:45:54.362Z,12.80
2022-07-26T01:48:58.061Z,14.40
2022-07-26T01:52:01.454Z,16.00
2022-07-26T01:55:05.187Z,16.60
2022-07-26T01:58:09.979Z,14.00
2022-07-26T02:01:13.389Z,13.00
2022-07-26T02:04:30.557Z,14.00
2022-07-26T02:07:38.757Z,16.00
2022-07-26T02:10:59.641Z,13.60
2022-07-26T02:14:04.866Z,15.00
2022-07-26T02:17:09.037Z,13.00
2022-07-26T02:20:13.063Z,14.50
2022-07-26T02:23:16.369Z,14.80
2022-07-26T02:26:19.650Z,14.75
2022-07-26T02:29:24.523Z,13.80
2022-07-26T02:32:27.955Z,14.40
2022-07-26T02:35:32.070Z,17.00
2022-07-26T02:38:35.311Z,14.00
2022-07-26T02:41:38.740Z,16.00
2022-07-26T02:44:43.408Z,15.00
2022-07-26T02:47:47.974Z,16.00
2022-07-26T02:50:51.199Z,14.60
2022-07-26T02:53:55.470Z,14.20
2022-07-26T02:56:58.826Z,14.00
2022-07-26T03:00:03.472Z,15.40
2022-07-26T03:03:06.892Z,15.20
2022-07-26T03:06:10.391Z,14.20
2022-07-26T03:09:13.787Z,14.00
2022-07-26T03:12:17.289Z,15.00
2022-07-26T03:15:24.661Z,18.00
2022-07-26T03:18:28.116Z,17.20
2022-07-26T03:21:31.440Z,16.40
2022-07-26T03:24:34.734Z,16.20
2022-07-26T03:27:38.032Z,16.00
2022-07-26T03:30:42.773Z,16.00
2022-07-26T03:33:46.143Z,17.00
2022-07-26T03:36:49.381Z,17.40
2022-07-26T03:39:52.964Z,20.00
2022-07-26T03:42:56.764Z,17.00
2022-07-26T03:46:01.721Z,18.40
2022-07-26T03:49:05.168Z,17.50
2022-07-26T03:52:10.914Z,18.00
2022-07-26T03:55:31.708Z,17.60
2022-07-26T03:58:35.388Z,17.60
2022-07-26T04:01:42.527Z,17.00
2022-07-26T04:04:45.787Z,17.00
2022-07-26T04:07:52.591Z,16.00
2022-07-26T04:10:56.873Z,19.00
2022-07-26T04:14:00.816Z,18.00
2022-07-26T04:17:05.990Z,17.00
2022-07-26T04:20:11.136Z,20.40
2022-07-26T04:23:14.565Z,20.40
2022-07-26T04:26:18.156Z,20.00
2022-07-26T04:29:21.360Z,14.00
2022-07-26T04:32:26.374Z,17.60
2022-07-26T04:35:29.681Z,17.00
2022-07-26T04:38:33.172Z,15.00
2022-07-26T04:41:36.437Z,13.75
2022-07-26T04:44:40.205Z,14.00
2022-07-26T04:47:45.712Z,15.00
2022-07-26T04:50:53.124Z,13.40
2022-07-26T04:53:56.685Z,19.00
2022-07-26T04:56:59.958Z,16.00
2022-07-26T05:00:20.646Z,16.00
2022-07-26T05:03:26.168Z,19.50
2022-07-26T05:06:29.700Z,22.60
2022-07-26T05:09:32.997Z,20.00
2022-07-26T05:12:36.340Z,16.50
2022-07-26T05:15:42.256Z,17.00
2022-07-26T05:18:49.195Z,16.40
2022-07-26T05:21:52.850Z,13.20
2022-07-26T05:24:56.130Z,15.20
2022-07-26T05:27:59.445Z,16.40
2022-07-26T05:31:02.781Z,13.20
2022-07-26T05:34:08.330Z,13.80
2022-07-26T05:37:12.634Z,14.20
2022-07-26T05:40:15.961Z,12.00
2022-07-26T05:43:19.371Z,14.00
2022-07-26T05:46:22.641Z,13.00
2022-07-26T05:49:27.336Z,14.00
2022-07-26T05:52:43.317Z,15.00
2022-07-26T05:55:46.729Z,15.00
2022-07-26T05:58:50.145Z,13.60
2022-07-26T06:01:56.606Z,13.00
2022-07-26T06:05:01.463Z,13.00
2022-07-26T06:08:04.862Z,16.00
2022-07-26T06:11:08.433Z,12.50
2022-07-26T06:14:12.051Z,13.60
2022-07-26T06:17:15.724Z,14.80
2022-07-26T06:20:21.159Z,13.40
2022-07-26T06:23:33.991Z,13.00
2022-07-26T06:26:38.292Z,13.80
2022-07-26T06:29:41.749Z,15.00
2022-07-26T06:32:45.020Z,14.00
2022-07-26T06:35:49.701Z,14.00
2022-07-26T06:38:55.030Z,13.80
2022-07-26T06:41:58.557Z,12.60
2022-07-26T06:45:02.333Z,13.00
2022-07-26T06:48:06.135Z,16.00
2022-07-26T06:51:11.354Z,15.00
2022-07-26T06:54:15.018Z,13.00
2022-07-26T06:57:18.274Z,12.60
2022-07-26T07:00:21.617Z,13.50
2022-07-26T07:03:24.965Z,11.60
2022-07-26T07:06:29.580Z,11.50
2022-07-26T07:09:33.057Z,10.50
2022-07-26T07:12:36.587Z,12.25
2022-07-26T07:15:40.010Z,10.00
2022-07-26T07:18:43.324Z,16.00
2022-07-26T07:21:48.118Z,14.60
2022-07-26T07:24:51.386Z,14.50
2022-07-26T07:27:54.695Z,12.00
2022-07-26T07:30:58.493Z,15.60
2022-07-26T07:34:01.812Z,13.60
2022-07-26T07:37:08.598Z,18.40
2022-07-26T07:40:16.229Z,18.80
2022-07-26T07:43:20.943Z,14.00
2022-07-26T07:46:24.407Z,15.50
2022-07-26T07:49:28.155Z,17.50
2022-07-26T07:52:32.850Z,16.00
2022-07-26T07:55:41.089Z,15.00
2022-07-26T07:58:47.456Z,17.00
2022-07-26T08:01:52.266Z,15.25
2022-07-26T08:04:55.794Z,15.00
2022-07-26T08:08:05.223Z,15.80
2022-07-26T08:11:12.433Z,16.00
2022-07-26T08:14:15.819Z,13.00
2022-07-26T08:17:21.332Z,15.00
2022-07-26T08:20:26.291Z,17.00
2022-07-26T08:23:31.372Z,15.00
2022-07-26T08:26:34.672Z,15.00
2022-07-26T08:29:38.023Z,15.40
2022-07-26T08:32:43.840Z,16.40
2022-07-26T08:35:47.397Z,17.00
2022-07-26T08:38:52.610Z,16.00
2022-07-26T08:41:56.001Z,16.00
2022-07-26T08:44:59.599Z,17.50
2022-07-26T08:48:19.009Z,18.20
2022-07-26T08:51:24.562Z,20.00
2022-07-26T08:54:29.599Z,20.00
2022-07-26T08:57:32.918Z,18.00
2022-07-26T09:00:36.251Z,20.00
2022-07-26T09:03:43.289Z,18.00
2022-07-26T09:06:57.836Z,20.00
2022-07-26T09:10:06.299Z,19.00
2022-07-26T09:13:09.629Z,20.40
2022-07-26T09:16:13.979Z,18.75
2022-07-26T09:19:19.716Z,22.00
2022-07-26T09:22:23.076Z,14.25
2022-07-26T09:25:29.245Z,19.00
2022-07-26T09:28:33.348Z,20.00
2022-07-26T09:31:37.129Z,17.00
2022-07-26T09:34:48.204Z,20.80
2022-07-26T09:37:55.579Z,21.25
2022-07-26T09:41:00.697Z,21.40
2022-07-26T09:44:07.032Z,19.20
2022-07-26T09:47:10.440Z,25.00
2022-07-26T09:50:16.484Z,18.00
2022-07-26T09:53:22.856Z,21.00
2022-07-26T09:56:43.644Z,21.00
2022-07-26T09:59:48.058Z,20.00
2022-07-26T10:02:51.835Z,21.00
2022-07-26T10:05:58.292Z,22.00
2022-07-26T10:09:02.998Z,23.20
2022-07-26T10:12:10.125Z,16.40
2022-07-26T10:15:35.584Z,23.00
2022-07-26T10:18:47.436Z,22.00
2022-07-26T10:21:52.497Z,21.00
2022-07-26T10:24:58.389Z,21.00
2022-07-26T10:28:03.288Z,22.80
2022-07-26T10:31:31.700Z,20.00
2022-07-26T10:34:36.837Z,19.00
2022-07-26T10:37:59.136Z,22.00
2022-07-26T10:41:04.293Z,18.20
2022-07-26T10:44:25.307Z,20.00
2022-07-26T10:47:33.370Z,20.00
2022-07-26T10:50:39.347Z,20.00
2022-07-26T10:53:42.692Z,20.00
2022-07-26T10:56:45.960Z,20.00
2022-07-26T10:59:56.150Z,20.00
2022-07-26T11:03:01.002Z,20.00
2022-07-26T11:06:11.630Z,20.25
2022-07-26T11:09:15.562Z,23.00
2022-07-26T11:12:19.802Z,22.20
2022-07-26T11:15:24.519Z,19.75
2022-07-26T11:18:30.874Z,21.00
2022-07-26T11:21:34.216Z,23.00
2022-07-26T11:24:41.661Z,24.00
2022-07-26T11:28:00.254Z,21.60
2022-07-26T11:31:05.916Z,22.00
2022-07-26T11:34:16.858Z,21.60
2022-07-26T11:37:20.133Z,21.00
2022-07-26T11:40:45.252Z,20.00
2022-07-26T11:43:49.109Z,20.00
2022-07-26T11:46:53.993Z,21.00
2022-07-26T11:50:18.739Z,22.00
2022-07-26T11:53:23.101Z,20.20
2022-07-26T11:56:28.534Z,19.20
2022-07-26T11:59:34.669Z,20.00
2022-07-26T12:02:39.474Z,18.20
2022-07-26T12:05:43.282Z,17.00
2022-07-26T12:08:52.736Z,16.00
2022-07-26T12:11:59.566Z,18.00
2022-07-26T12:15:05.925Z,17.40
2022-07-26T12:18:11.869Z,18.00
2022-07-26T12:21:15.154Z,19.00
2022-07-26T12:24:40.699Z,18.00
2022-07-26T12:27:47.465Z,18.00
2022-07-26T12:30:50.943Z,20.00
2022-07-26T12:33:56.658Z,17.60
2022-07-26T12:37:14.368Z,20.00
2022-07-26T12:40:19.186Z,20.60
2022-07-26T12:43:25.131Z,20.00
2022-07-26T12:46:28.544Z,21.00
2022-07-26T12:49:33.636Z,21.50
2022-07-26T12:52:37.648Z,22.80
2022-07-26T12:55:40.942Z,22.40
2022-07-26T12:58:44.313Z,20.00
2022-07-26T13:01:47.714Z,20.00
2022-07-26T13:04:58.274Z,19.60
2022-07-26T13:08:03.307Z,19.00
2022-07-26T13:11:06.864Z,20.00
2022-07-26T13:14:10.400Z,18.60
2022-07-26T13:17:17.071Z,18.20
2022-07-26T13:20:21.870Z,17.60
2022-07-26T13:23:25.437Z,19.00
2022-07-26T13:26:30.215Z,19.00
2022-07-26T13:29:35.487Z,16.25
2022-07-26T13:32:38.791Z,17.60
2022-07-26T13:35:43.520Z,15.20
2022-07-26T13:38:46.950Z,12.00
2022-07-26T13:41:50.765Z,10.00
2022-07-26T13:44:54.740Z,9.00
2022-07-26T13:47:59.707Z,7.75
2022-07-26T13:51:04.672Z,8.00
2022-07-26T13:54:08.289Z,10.40
2022-07-26T13:57:11.915Z,7.00
2022-07-26T14:00:16.025Z,6.00
2022-07-26T14:03:19.636Z,8.00
2022-07-26T14:06:26.437Z,8.00
2022-07-26T14:09:29.636Z,7.80
2022-07-26T14:12:33.752Z,8.25
2022-07-26T14:15:37.760Z,12.00
2022-07-26T14:18:41.050Z,8.00
2022-07-26T14:21:58.600Z,7.75
2022-07-26T14:25:02.372Z,12.00
2022-07-26T14:28:06.234Z,9.75
2022-07-26T14:31:09.574Z,9.50
2022-07-26T14:34:13.206Z,9.00
2022-07-26T14:37:43.503Z,7.00
2022-07-26T14:40:42.836Z,7.00
2022-07-26T14:43:49.860Z,7.20
2022-07-26T14:46:56.321Z,8.00
2022-07-26T14:50:04.202Z,9.00
2022-07-26T14:53:12.329Z,8.00
2022-07-26T14:56:15.610Z,10.00
2022-07-26T14:59:18.875Z,8.40
2022-07-26T15:02:22.312Z,8.00
2022-07-26T15:05:27.812Z,9.80
2022-07-26T15:08:32.515Z,8.00
2022-07-26T15:11:35.856Z,8.00
2022-07-26T15:14:39.710Z,9.00
2022-07-26T15:17:43.555Z,9.00
2022-07-26T15:20:47.035Z,11.00
2022-07-26T15:23:52.229Z,11.40
2022-07-26T15:26:55.877Z,13.00
2022-07-26T15:30:04.238Z,13.75
2022-07-26T15:33:10.217Z,11.60
2022-07-26T15:36:13.577Z,13.25
2022-07-26T15:39:18.603Z,12.25
2022-07-26T15:42:22.619Z,11.00
2022-07-26T15:45:26.911Z,11.00
2022-07-26T15:48:30.955Z,13.00
2022-07-26T15:51:34.568Z,12.00
2022-07-26T15:54:39.344Z,11.20
2022-07-26T15:57:42.768Z,13.00
2022-07-26T16:00:49.796Z,12.00
2022-07-26T16:03:55.433Z,12.00
2022-07-26T16:06:58.751Z,11.20
2022-07-26T16:10:03.445Z,14.60
2022-07-26T16:13:06.839Z,14.00
2022-07-26T16:16:10.332Z,11.00
2022-07-26T16:19:14.482Z,15.50
2022-07-26T16:22:18.076Z,13.40
2022-07-26T16:25:22.816Z,15.60
2022-07-26T16:28:26.178Z,13.60
2022-07-26T16:31:29.784Z,16.00
2022-07-26T16:34:34.886Z,13.00
2022-07-26T16:37:38.328Z,14.00
2022-07-26T16:40:43.063Z,13.00
2022-07-26T16:43:46.501Z,13.00
2022-07-26T16:46:50.029Z,13.60
2022-07-26T16:49:53.278Z,12.00
2022-07-26T16:52:56.606Z,13.00
2022-07-26T16:56:03.607Z,14.60
2022-07-26T16:59:10.526Z,13.60
2022-07-26T17:02:14.253Z,14.00
2022-07-26T17:05:17.946Z,13.00
2022-07-26T17:08:21.500Z,13.50
2022-07-26T17:11:26.218Z,14.00
2022-07-26T17:14:29.607Z,12.00
2022-07-26T17:17:32.943Z,13.60
2022-07-26T17:20:36.374Z,12.00
2022-07-26T17:23:40.707Z,14.40
2022-07-26T17:26:45.602Z,14.00
2022-07-26T17:29:48.996Z,12.00
2022-07-26T17:32:52.431Z,14.40
2022-07-26T17:35:56.515Z,14.00
2022-07-26T17:39:05.877Z,14.00
2022-07-26T17:42:14.820Z,13.00
2022-07-26T17:45:18.340Z,12.20
2022-07-26T17:48:21.686Z,12.20
2022-07-26T17:51:25.211Z,12.40
2022-07-26T17:54:28.689Z,17.50
2022-07-26T17:57:33.710Z,15.00
2022-07-26T18:00:37.562Z,13.40
2022-07-26T18:03:40.832Z,13.00
2022-07-26T18:06:44.746Z,11.00
2022-07-26T18:09:48.417Z,13.33
2022-07-26T18:12:53.047Z,12.20
2022-07-26T18:15:57.246Z,12.40
2022-07-26T18:19:00.970Z,13.60
2022-07-26T18:22:06.286Z,14.00
2022-07-26T18:25:10.936Z,15.00
2022-07-26T18:28:18.796Z,13.00
2022-07-26T18:31:22.179Z,15.00
2022-07-26T18:34:25.568Z,15.40
2022-07-26T18:37:28.997Z,15.00
2022-07-26T18:40:33.008Z,14.75
2022-07-26T18:43:37.902Z,15.00
2022-07-26T18:46:41.320Z,12.80
2022-07-26T18:49:44.757Z,14.00
2022-07-26T18:52:48.400Z,14.00
2022-07-26T18:55:51.996Z,14.00
2022-07-26T18:58:56.995Z,13.00
2022-07-26T19:02:00.666Z,16.00
2022-07-26T19:05:04.337Z,14.00
2022-07-26T19:08:08.086Z,13.25
2022-07-26T19:11:11.414Z,14.00
2022-07-26T19:14:16.555Z,13.20
2022-07-26T19:17:19.861Z,14.00
2022-07-26T19:20:23.314Z,13.00
2022-07-26T19:23:27.206Z,13.80
2022-07-26T19:26:31.047Z,14.00
2022-07-26T19:29:35.742Z,12.00
2022-07-26T19:32:39.882Z,14.00
2022-07-26T19:35:43.173Z,16.00
2022-07-26T19:38:46.494Z,14.00
2022-07-26T19:41:49.996Z,15.00
2022-07-26T19:44:54.953Z,13.60
2022-07-26T19:47:58.471Z,15.00
2022-07-26T19:51:01.789Z,13.75
2022-07-26T19:54:05.724Z,14.60
2022-07-26T19:57:09.200Z,14.00
2022-07-26T20:00:14.828Z,13.33
2022-07-26T20:03:18.358Z,15.60
2022-07-26T20:06:22.064Z,14.00
2022-07-26T20:09:27.018Z,15.00
2022-07-26T20:12:30.485Z,16.00
2022-07-26T20:15:35.202Z,16.00
2022-07-26T20:18:38.564Z,14.60
2022-07-26T20:21:42.637Z,16.00
2022-07-26T20:24:46.226Z,17.33
2022-07-26T20:27:51.479Z,15.20
2022-07-26T20:30:56.252Z,15.00
2022-07-26T20:33:59.636Z,14.40
2022-07-26T20:37:03.172Z,14.00
2022-07-26T20:40:08.279Z,15.00
2022-07-26T20:43:12.734Z,15.00
2022-07-26T20:46:19.293Z,15.00
2022-07-26T20:49:23.061Z,16.50
2022-07-26T20:52:26.368Z,16.60
2022-07-26T20:55:29.946Z,13.50
2022-07-26T20:58:33.230Z,14.75
2022-07-26T21:01:38.265Z,15.60
2022-07-26T21:04:41.609Z,17.00
2022-07-26T21:07:55.579Z,15.00
2022-07-26T21:11:03.093Z,14.60
2022-07-26T21:14:06.744Z,17.50
2022-07-26T21:17:12.294Z,15.60
2022-07-26T21:20:15.846Z,17.00
2022-07-26T21:23:19.157Z,13.40
2022-07-26T21:26:23.765Z,15.75
2022-07-26T21:29:27.111Z,17.00
2022-07-26T21:32:32.083Z,14.00
2022-07-26T21:35:35.305Z,15.00
2022-07-26T21:38:38.638Z,15.75
2022-07-26T21:41:41.909Z,14.60
2022-07-26T21:44:45.155Z,17.00
2022-07-26T21:47:50.262Z,13.60
2022-07-26T21:50:53.982Z,14.00
2022-07-26T21:53:57.700Z,15.60
2022-07-26T21:57:01.162Z,15.00
2022-07-26T22:00:06.125Z,13.00
2022-07-26T22:03:11.907Z,15.50
2022-07-26T22:06:15.447Z,12.00
2022-07-26T22:09:18.986Z,12.00
2022-07-26T22:12:22.724Z,13.25
2022-07-26T22:15:26.023Z,13.60
2022-07-26T22:18:33.413Z,13.00
2022-07-26T22:21:36.804Z,16.00
2022-07-26T22:24:40.057Z,15.00
2022-07-26T22:27:43.698Z,13.00
2022-07-26T22:30:47.500Z,14.00
2022-07-26T22:33:53.194Z,14.00
2022-07-26T22:36:56.473Z,13.00
2022-07-26T22:40:00.448Z,13.60
2022-07-26T22:43:04.001Z,12.80
2022-07-26T22:46:07.260Z,14.00
2022-07-26T22:49:12.875Z,14.00
2022-07-26T22:52:18.911Z,11.80
2022-07-26T22:55:23.125Z,14.00
2022-07-26T22:58:26.493Z,13.75
2022-07-26T23:01:30.673Z,12.00
2022-07-26T23:04:35.419Z,14.00
2022-07-26T23:07:40.071Z,15.60
2022-07-26T23:10:44.248Z,13.00
2022-07-26T23:13:47.492Z,15.00
2022-07-26T23:16:51.183Z,14.60
2022-07-26T23:19:55.958Z,15.00
2022-07-26T23:22:59.202Z,13.00
2022-07-26T23:26:02.613Z,16.00
2022-07-26T23:29:06.174Z,16.00
2022-07-26T23:32:09.518Z,16.00
2022-07-26T23:35:14.217Z,16.00
2022-07-26T23:38:17.485Z,15.00
2022-07-26T23:41:21.225Z,15.80
2022-07-26T23:44:24.509Z,14.67
2022-07-26T23:47:28.091Z,15.00
2022-07-26T23:50:32.769Z,15.00
2022-07-26T23:53:36.110Z,14.00
2022-07-26T23:56:39.392Z,12.00
2022-07-26T23:59:42.750Z,11.00
